createdAt,value
2023-03-26T00:01:46.002Z,81.85808496053033
2023-03-26T00:04:42.538Z,80.81770189500457
2023-03-26T00:07:38.068Z,77.92499541260928
2023-03-26T00:10:34.649Z,79.20689952148125
2023-03-26T00:13:32.201Z,79.82356476070375
2023-03-26T00:16:28.774Z,81.38909355653514
2023-03-26T00:19:25.308Z,80.71076745285565
2023-03-26T00:22:22.874Z,81.03686110942796
2023-03-26T00:25:21.439Z,81.05317838688343
2023-03-26T00:28:16.948Z,80.91537943393635
2023-03-26T00:31:14.632Z,80.79529855274599
2023-03-26T00:34:15.096Z,81.17969471382703
2023-03-26T00:40:20.186Z,81.40569575825612
2023-03-26T00:43:18.773Z,81.6258256126768
2023-03-26T00:46:14.385Z,81.49279614683084
2023-03-26T00:49:14.995Z,80.64399455001018
2023-03-26T00:52:10.399Z,81.58244138404406
2023-03-26T00:55:06.955Z,82.23521923856083
2023-03-26T00:58:02.566Z,82.50592289238111
2023-03-26T01:01:03.152Z,82.46535899135078
2023-03-26T01:04:09.136Z,82.65916353425946
2023-03-26T01:07:10.144Z,82.3223922899558
2023-03-26T01:10:07.716Z,82.10516354647679
2023-03-26T01:13:03.371Z,82.44201903068067
2023-03-26T01:16:01.982Z,82.2066677223455
2023-03-26T01:19:00.422Z,82.05844175654617
2023-03-26T01:22:02.932Z,81.66476977564133
2023-03-26T01:24:58.456Z,81.62047535987931
2023-03-26T01:28:01.067Z,82.22160833837744
2023-03-26T01:31:06.575Z,82.417099108432
2023-03-26T01:34:12.095Z,81.00905372179788
2023-03-26T01:37:15.677Z,81.66378400057056
2023-03-26T01:40:25.158Z,82.45275733684954
2023-03-26T01:43:29.743Z,83.03150320250543
2023-03-26T01:46:27.349Z,83.05150878255027
2023-03-26T01:49:22.822Z,82.9278303274908
2023-03-26T01:52:22.426Z,82.38959142983447
2023-03-26T01:55:19.922Z,82.3605177203391
2023-03-26T01:58:27.425Z,81.9625555448458
2023-03-26T02:01:31.038Z,82.47086094072841
2023-03-26T02:04:34.565Z,83.10254392033207
2023-03-26T02:07:42.065Z,83.6735519714497
2023-03-26T02:10:43.656Z,84.10847622283971
2023-03-26T02:13:40.170Z,84.18843414433763
2023-03-26T02:16:36.777Z,84.40081844078391
2023-03-26T02:19:32.288Z,84.43341117661878
2023-03-26T02:22:30.848Z,84.4989371286963
2023-03-26T02:25:26.413Z,84.94622892219296
2023-03-26T02:28:22.963Z,84.58309724303118
2023-03-26T02:31:19.548Z,84.78592006930238
2023-03-26T02:34:17.148Z,85.00656690234354
2023-03-26T02:37:14.631Z,85.07732756302494
2023-03-26T02:40:11.229Z,85.79770840104865
2023-03-26T02:43:07.779Z,85.90107390562542
2023-03-26T02:46:03.376Z,85.66366042430236
2023-03-26T02:48:58.879Z,84.55576206149497
2023-03-26T02:51:56.502Z,83.04596874158207
2023-03-26T02:54:52.989Z,83.07061667603183
2023-03-26T02:57:48.558Z,83.57972768527401
2023-03-26T03:00:50.134Z,83.83854964361555
2023-03-26T03:03:47.681Z,82.53855752257262
2023-03-26T03:06:44.253Z,81.57292276023792
2023-03-26T03:09:40.781Z,82.08474603909123
2023-03-26T03:12:37.353Z,82.35599120368039
2023-03-26T03:15:32.899Z,81.33571051379117
2023-03-26T03:18:28.473Z,80.59641324968122
2023-03-26T03:21:27.029Z,81.22052799033627
2023-03-26T03:24:23.614Z,82.08759004371213
2023-03-26T03:27:20.146Z,82.28428731744837
2023-03-26T03:30:15.683Z,82.01258754205814
2023-03-26T03:33:13.289Z,81.41585209722534
2023-03-26T03:36:19.889Z,80.06759543841306
2023-03-26T03:39:11.336Z,80.42765960988876
2023-03-26T03:42:06.912Z,82.29402744326751
2023-03-26T03:48:08.075Z,82.17040884042592
2023-03-26T03:51:04.571Z,82.17471358961124
2023-03-26T03:54:00.174Z,82.83487393324921
2023-03-26T03:56:57.726Z,83.51564802305725
2023-03-26T03:59:53.261Z,83.74743259262266
2023-03-26T04:02:58.881Z,83.65519915897191
2023-03-26T04:05:56.470Z,83.51287573180583
2023-03-26T04:08:51.924Z,83.64147781040894
2023-03-26T04:11:47.457Z,83.79474598030556
2023-03-26T04:17:48.617Z,84.11608493433198
2023-03-26T04:20:46.140Z,84.55840120072959
2023-03-26T04:23:45.681Z,84.64873477807444
2023-03-26T04:26:47.219Z,83.7786242695151
2023-03-26T04:29:49.784Z,82.9513115884305
2023-03-26T04:32:51.351Z,84.16873339879334
2023-03-26T04:35:47.966Z,85.42321892972276
2023-03-26T04:38:44.500Z,84.43955080866617
2023-03-26T04:41:42.978Z,84.22532066331176
2023-03-26T04:44:41.562Z,83.6071408826117
2023-03-26T04:47:39.196Z,84.44096608256531
2023-03-26T04:50:35.659Z,83.29798456021466
2023-03-26T04:53:31.218Z,81.72569240944804
2023-03-26T04:56:34.828Z,81.69857219499696
2023-03-26T04:59:35.408Z,82.57845900464275
2023-03-26T05:02:31.926Z,83.01709436945798
2023-03-26T05:05:28.391Z,82.05250511188461
2023-03-26T05:11:29.521Z,81.95712949727749
2023-03-26T05:14:26.092Z,82.70299620748607
2023-03-26T05:17:24.761Z,81.107108081693
2023-03-26T05:20:22.199Z,80.92121851102188
2023-03-26T05:23:17.739Z,81.90265387296617
2023-03-26T05:26:13.297Z,80.73173503551162
2023-03-26T05:29:08.871Z,79.39104961820985
2023-03-26T05:32:04.430Z,79.68619929689292
2023-03-26T05:35:01.016Z,80.57786809029416
2023-03-26T05:37:57.557Z,80.35049324513214
2023-03-26T05:40:57.080Z,80.28855848358451
2023-03-26T05:43:52.658Z,79.90472196548848
2023-03-26T05:46:48.252Z,78.51195608806181
2023-03-26T05:49:43.765Z,78.431188725042
2023-03-26T05:52:39.340Z,78.79262841277648
2023-03-26T05:55:34.921Z,79.15948177800769
2023-03-26T05:58:32.458Z,79.40257927082916
2023-03-26T06:01:30.078Z,79.02719556807735
2023-03-26T06:04:27.672Z,78.28472080778077
2023-03-26T06:07:24.194Z,78.26219354672541
2023-03-26T06:10:20.692Z,77.38158380073148
2023-03-26T06:13:16.263Z,77.29793934574478
2023-03-26T06:16:21.103Z,77.2262425388933
2023-03-26T06:19:13.430Z,77.33239424790376
2023-03-26T06:22:09.921Z,77.29192719774491
2023-03-26T06:25:07.532Z,76.74591469207914
2023-03-26T06:28:04.038Z,76.43038158652004
2023-03-26T06:31:01.670Z,76.55298957709006
2023-03-26T06:33:57.126Z,75.9845164483477
2023-03-26T06:36:52.738Z,74.96984505255915
2023-03-26T06:39:48.284Z,74.87697874698137
2023-03-26T06:43:06.944Z,73.97611913577595
2023-03-26T06:45:44.397Z,73.32765426719278
2023-03-26T06:51:46.480Z,72.66170712671585
2023-03-26T06:54:42.071Z,73.10620952288848
2023-03-26T06:57:37.599Z,72.84067206309444
2023-03-26T07:00:33.193Z,72.78595730555077
2023-03-26T07:06:34.276Z,71.01811047120363
2023-03-26T07:12:35.416Z,69.97543583771136
2023-03-26T07:15:31.964Z,69.75952080473421
2023-03-26T07:18:27.537Z,69.76028730821321
2023-03-26T07:24:28.578Z,66.29652655393835
2023-03-26T07:27:36.140Z,66.20769142318863
2023-03-26T07:30:41.689Z,65.07413466831362
2023-03-26T07:33:45.213Z,64.93549530337935
2023-03-26T07:36:52.765Z,63.87565198483455
2023-03-26T07:39:58.236Z,63.091472870847205
2023-03-26T07:43:05.819Z,61.208532293093064
2023-03-26T07:46:08.364Z,62.034146471026766
2023-03-26T07:49:12.898Z,61.82330589915205
2023-03-26T07:52:10.475Z,62.22026668494173
2023-03-26T07:55:07.018Z,61.32111512008765
2023-03-26T07:58:13.575Z,61.06966673377842
2023-03-26T08:01:18.051Z,59.357775618105414
2023-03-26T08:04:31.660Z,59.31353970114001
2023-03-26T08:07:39.138Z,57.12646220098476
2023-03-26T08:10:42.638Z,56.58596333514819
2023-03-26T08:13:53.181Z,56.07859291781856
2023-03-26T08:16:54.748Z,56.28177818615727
2023-03-26T08:20:10.260Z,54.14781486339517
2023-03-26T08:23:12.792Z,51.89768195947999
2023-03-26T08:29:32.866Z,50.92545269219686
2023-03-26T08:32:30.417Z,50.361889194807205
2023-03-26T08:35:27.017Z,48.52884184838277
2023-03-26T08:38:23.541Z,46.21590003269553
2023-03-26T08:41:38.022Z,46.76756387521721
2023-03-26T08:44:47.565Z,47.126521211474774
2023-03-26T08:48:03.140Z,44.16933411234569
2023-03-26T08:51:20.559Z,42.73718926353199
2023-03-26T08:54:37.064Z,42.25898314789904
2023-03-26T08:57:53.599Z,40.99099525107831
2023-03-26T09:01:09.120Z,39.634038105782224
2023-03-26T09:04:23.620Z,40.809001724285636
2023-03-26T09:07:37.109Z,40.357332351516
2023-03-26T09:10:46.673Z,37.501526609869664
2023-03-26T09:13:58.134Z,36.672659402769895
2023-03-26T09:17:13.662Z,38.32505264390268
2023-03-26T09:20:27.234Z,37.529035328978935
2023-03-26T09:23:38.759Z,35.963728588553394
2023-03-26T09:26:46.297Z,35.88528095390197
2023-03-26T09:29:54.783Z,37.16322728789567
2023-03-26T09:33:11.299Z,35.782581637606945
2023-03-26T09:36:26.824Z,35.169683766685196
2023-03-26T09:39:33.346Z,34.79025580856148
2023-03-26T09:42:42.869Z,33.678453018037445
2023-03-26T09:45:57.352Z,33.89692732977544
2023-03-26T09:49:12.898Z,33.61441342739535
2023-03-26T09:52:24.441Z,33.62446545822685
2023-03-26T09:55:39.980Z,32.277183461970324
2023-03-26T09:58:56.446Z,33.050837018399875
2023-03-26T10:02:03.996Z,32.18002392329906
2023-03-26T10:05:21.494Z,31.860678426962544
2023-03-26T10:08:32.996Z,31.73361997673334
2023-03-26T10:11:38.527Z,31.96881963263446
2023-03-26T10:14:42.129Z,30.99530404572814
2023-03-26T10:17:51.666Z,29.77789408989457
2023-03-26T10:20:59.129Z,30.93952030448292
2023-03-26T10:24:08.635Z,29.89850622360102
2023-03-26T10:27:24.312Z,28.966694078751004
2023-03-26T10:30:41.697Z,30.024633147824314
2023-03-26T10:33:52.191Z,28.687937430724176
2023-03-26T10:37:04.715Z,29.96722856625504
2023-03-26T10:40:12.266Z,29.22791980111256
2023-03-26T10:43:21.754Z,27.542576693112235
2023-03-26T10:46:37.328Z,27.57120201213642
2023-03-26T10:49:48.809Z,26.384019240734528
2023-03-26T10:52:49.339Z,26.59191323906401
2023-03-26T10:55:51.890Z,25.506400530046808
2023-03-26T10:58:50.630Z,23.363965785694802
2023-03-26T11:01:56.058Z,25.98819730022668
2023-03-26T11:05:07.570Z,26.284399436970663
2023-03-26T11:08:13.049Z,26.037140715711534
2023-03-26T11:11:19.602Z,23.333930315379558
2023-03-26T11:14:33.842Z,22.871128265012246
2023-03-26T11:17:41.000Z,23.26325650686823
2023-03-26T11:20:41.242Z,22.029593191254385
2023-03-26T11:23:49.706Z,22.33627489297883
2023-03-26T11:26:55.236Z,21.812539444111856
2023-03-26T11:30:02.744Z,22.223552906947805
2023-03-26T11:33:04.327Z,21.898741899910934
2023-03-26T11:39:13.404Z,22.687031209540567
2023-03-26T11:42:10.992Z,21.40961387542937
2023-03-26T11:45:15.521Z,20.339848322058053
2023-03-26T11:48:19.058Z,21.200042045970388
2023-03-26T11:51:19.605Z,19.519606150179417
2023-03-26T11:54:21.155Z,18.368041466786323
2023-03-26T11:57:22.741Z,18.53096875151936
2023-03-26T12:00:27.247Z,18.54993588750485
2023-03-26T12:03:29.764Z,19.962969140789667
2023-03-26T12:06:32.348Z,19.19413914563365
2023-03-26T12:09:28.828Z,19.248545977642035
2023-03-26T12:12:30.409Z,19.10259335695447
2023-03-26T12:15:26.965Z,18.95896899327035
2023-03-26T12:18:28.550Z,17.854507571907885
2023-03-26T12:21:30.102Z,17.928072387751914
2023-03-26T12:24:29.611Z,19.15268216889307
2023-03-26T12:27:30.180Z,16.67233610291546
2023-03-26T12:30:33.713Z,17.291667833779794
2023-03-26T12:33:34.428Z,17.41816608626814
2023-03-26T12:36:32.822Z,17.64394490018519
2023-03-26T12:40:07.284Z,17.146146977455107
